Wetterdaten: aktuell Samstag, 20.04.2019 09:48
Datum Zeit Temp. A. Feuchte A. Luftdruck Regen Wind Richtung Richtung Taupunkt Windchill Windben
20.04.2019 09:48 14,4 C 53 % 1029,1 hPa 0,0 l/m 6,4 km/h (2 Bft) NO 45 4,9 C 14,4 C 9,7 km/h (2 Bft)
20.04.2019 08:48 12,2 C 59 % 1029,1 hPa 0,0 l/m 6,4 km/h (2 Bft) NO 45 4,4 C 12,2 C 8,0 km/h (2 Bft)
20.04.2019 07:48 10,4 C 62 % 1029,4 hPa 0,0 l/m 6,4 km/h (2 Bft) NO 45 3,4 C 10,4 C 8,0 km/h (2 Bft)
20.04.2019 06:48 3,4 C 81 % 1029,1 hPa 0,0 l/m 0,0 km/h (0 Bft) N 0 0,5 C 3,4 C 0,0 km/h (0 Bft)
20.04.2019 05:48 1,3 C 82 % 1029,0 hPa 0,0 l/m 1,6 km/h (1 Bft) NO 45 -1,4 C 1,3 C 3,2 km/h (1 Bft)
20.04.2019 04:48 2,6 C 84 % 1028,4 hPa 0,0 l/m 0,0 km/h (0 Bft) N 0 0,2 C 2,6 C 0,0 km/h (0 Bft)
20.04.2019 03:48 4,4 C 79 % 1028,3 hPa 0,0 l/m 0,0 km/h (0 Bft) N 0 1,1 C 4,4 C 1,6 km/h (1 Bft)
20.04.2019 02:48 5,2 C 74 % 1028,3 hPa 0,0 l/m 1,6 km/h (1 Bft) O-NO 67 1,0 C 5,2 C 3,2 km/h (1 Bft)
20.04.2019 01:48 7,8 C 70 % 1028,3 hPa 0,0 l/m 1,6 km/h (1 Bft) NO 45 2,7 C 7,8 C 1,6 km/h (1 Bft)
20.04.2019 00:48 8,3 C 67 % 1028,6 hPa 0,0 l/m 4,8 km/h (1 Bft) N-NO 22 2,5 C 8,3 C 4,8 km/h (1 Bft)
19.04.2019 23:48 8,8 C 67 % 1028,7 hPa 0,0 l/m 0,0 km/h (0 Bft) NO 45 3,0 C 8,8 C 1,6 km/h (1 Bft)
19.04.2019 22:48 9,5 C 66 % 1028,7 hPa 0,0 l/m 0,0 km/h (0 Bft) N 0 3,5 C 9,5 C 1,6 km/h (1 Bft)
19.04.2019 21:48 9,7 C 68 % 1028,7 hPa 0,0 l/m 0,0 km/h (0 Bft) N 0 4,1 C 9,7 C 0,0 km/h (0 Bft)
19.04.2019 20:48 11,3 C 61 % 1028,6 hPa 0,0 l/m 0,0 km/h (0 Bft) N 0 4,1 C 11,3 C 0,0 km/h (0 Bft)
19.04.2019 19:48 14,0 C 50 % 1028,1 hPa 0,0 l/m 0,0 km/h (0 Bft) N 0 3,7 C 14,0 C 0,0 km/h (0 Bft)
19.04.2019 18:48 17,7 C 40 % 1027,7 hPa 0,0 l/m 1,6 km/h (1 Bft) NO 45 3,9 C 17,7 C 3,2 km/h (1 Bft)
19.04.2019 17:48 19,9 C 27 % 1027,5 hPa 0,0 l/m 6,4 km/h (2 Bft) NO 45 0,4 C 19,9 C 8,0 km/h (2 Bft)
19.04.2019 16:48 20,6 C 30 % 1027,7 hPa 0,0 l/m 11,3 km/h (2 Bft) NO 45 2,4 C 18,9 C 19,3 km/h (3 Bft)
19.04.2019 15:48 20,9 C 30 % 1028,0 hPa 0,0 l/m 8,0 km/h (2 Bft) O-NO 67 2,7 C 20,3 C 9,7 km/h (2 Bft)
19.04.2019 14:48 20,6 C 32 % 1028,4 hPa 0,0 l/m 14,5 km/h (3 Bft) NO 45 3,3 C 18,1 C 19,3 km/h (3 Bft)
19.04.2019 13:48 20,2 C 30 % 1029,0 hPa 0,0 l/m 11,3 km/h (2 Bft) O 90 2,1 C 18,5 C 17,7 km/h (3 Bft)
19.04.2019 12:48 19,4 C 33 % 1029,1 hPa 0,0 l/m 12,9 km/h (3 Bft) NO 45 2,7 C 17,1 C 17,7 km/h (3 Bft)
19.04.2019 11:48 18,2 C 43 % 1029,4 hPa 0,0 l/m 4,8 km/h (1 Bft) NO 45 5,4 C 18,2 C 4,8 km/h (1 Bft)
19.04.2019 10:48 16,2 C 46 % 1029,6 hPa 0,0 l/m 9,7 km/h (2 Bft) NO 45 4,6 C 14,6 C 17,7 km/h (3 Bft)
19.04.2019 10:00 14,3 C 53 % 1029,6 hPa 0,0 l/m 9,7 km/h (2 Bft) NO 45 4,9 C 12,5 C 16,1 km/h (3 Bft)
_ Min-Zeit 04:59 17:33 17:56 - 19:09 - - 04:59 04:59 19:10
Minimum _ 0,9 C 24 % 1027,4 hPa - 0,0 km/h (0 Bft) - - -2,0 C 0,9 C 0,0 km/h (0 Bft)
_ Max-Zeit 15:05 05:06 10:11 10:00 12:57 - - 11:01 15:07 12:57
Maximum _ 21,1 C 87 % 1029,8 hPa 0,0 l/m 27,4 km/h
NO (4 Bft)
- - 6,4 C 21,1 C 30,6 km/h
O-NO (5 Bft)
Durchschnitt _ 12,5 C 56 % 1028,7 hPa #0,0 l/m 5,1 km/h (1 Bft) NO - 3,0 C 11,8 C 8,1 km/h (2 Bft)